Farmingville, New York
Current Conditions -  °F | °C
As of 12:56 PM on Friday 21 Nov 2014 (Local Time) from KISP Reporting Station
Scattered Clouds Scattered Clouds  
Wind Chill: 25°   Ceiling: Unl
Heat Index: 36°   Visibility: 10mi
Dew Point: 12°   Wind: 22mph
Humidity: 37%   Direction: 280°W
Pressure: 30.24"   Gusts: 31mph
Location:  40.83°N, 73.04°W
Report Text: KISP 211756Z 28019G27KT 10SM SCT055 02/M11 A3024 RMK AO2 PK WND 28028/1718 SLP239 T00221111 10028 21022 51006
Loading
Personal Weather Stations






























Interactive Weather Map New forecast layout! Learn more

10-Day Weather Forecast

Advertisements
Track Severe Weather on mobile